sensor_id;sensor_type;location;lat;lon;timestamp;P1;durP1;ratioP1;P2;durP2;ratioP2
67867;SDS011;54672;46.096;14.470;2023-12-14T00:01:26;29.08;;;12.80;;
67867;SDS011;54672;46.096;14.470;2023-12-14T00:03:52;13.45;;;5.80;;
67867;SDS011;54672;46.096;14.470;2023-12-14T00:06:17;11.32;;;5.13;;
67867;SDS011;54672;46.096;14.470;2023-12-14T00:08:43;9.68;;;4.40;;
67867;SDS011;54672;46.096;14.470;2023-12-14T00:11:09;11.30;;;6.35;;
67867;SDS011;54672;46.096;14.470;2023-12-14T00:13:36;10.02;;;5.43;;
67867;SDS011;54672;46.096;14.470;2023-12-14T00:16:02;11.10;;;5.30;;
67867;SDS011;54672;46.096;14.470;2023-12-14T00:18:29;10.00;;;4.93;;
67867;SDS011;54672;46.096;14.470;2023-12-14T00:20:55;10.23;;;5.13;;
67867;SDS011;54672;46.096;14.470;2023-12-14T00:23:21;11.02;;;5.47;;
67867;SDS011;54672;46.096;14.470;2023-12-14T00:25:46;14.05;;;7.20;;
67867;SDS011;54672;46.096;14.470;2023-12-14T00:28:12;9.52;;;4.80;;
67867;SDS011;54672;46.096;14.470;2023-12-14T00:30:37;11.07;;;6.00;;
67867;SDS011;54672;46.096;14.470;2023-12-14T00:33:03;9.95;;;5.18;;
67867;SDS011;54672;46.096;14.470;2023-12-14T00:35:28;12.45;;;6.07;;
67867;SDS011;54672;46.096;14.470;2023-12-14T00:37:54;10.52;;;5.50;;
67867;SDS011;54672;46.096;14.470;2023-12-14T00:40:19;9.60;;;5.28;;
67867;SDS011;54672;46.096;14.470;2023-12-14T00:42:45;8.68;;;4.70;;
67867;SDS011;54672;46.096;14.470;2023-12-14T00:45:10;10.68;;;5.43;;
67867;SDS011;54672;46.096;14.470;2023-12-14T00:47:36;11.15;;;5.88;;
67867;SDS011;54672;46.096;14.470;2023-12-14T00:50:01;9.98;;;5.40;;
67867;SDS011;54672;46.096;14.470;2023-12-14T00:52:27;9.25;;;5.03;;
67867;SDS011;54672;46.096;14.470;2023-12-14T00:54:52;9.00;;;4.53;;
67867;SDS011;54672;46.096;14.470;2023-12-14T00:57:18;11.80;;;4.60;;
67867;SDS011;54672;46.096;14.470;2023-12-14T00:59:43;8.95;;;4.57;;
67867;SDS011;54672;46.096;14.470;2023-12-14T01:02:09;9.90;;;4.75;;
67867;SDS011;54672;46.096;14.470;2023-12-14T01:04:34;11.65;;;5.22;;
67867;SDS011;54672;46.096;14.470;2023-12-14T01:07:00;10.70;;;5.30;;
67867;SDS011;54672;46.096;14.470;2023-12-14T01:09:25;11.50;;;5.47;;
67867;SDS011;54672;46.096;14.470;2023-12-14T01:11:51;9.85;;;4.88;;
67867;SDS011;54672;46.096;14.470;2023-12-14T01:14:16;15.90;;;6.13;;
67867;SDS011;54672;46.096;14.470;2023-12-14T01:16:42;15.05;;;6.22;;
67867;SDS011;54672;46.096;14.470;2023-12-14T01:19:07;15.98;;;6.93;;
67867;SDS011;54672;46.096;14.470;2023-12-14T01:21:33;19.38;;;6.68;;
67867;SDS011;54672;46.096;14.470;2023-12-14T01:23:58;18.65;;;7.78;;
67867;SDS011;54672;46.096;14.470;2023-12-14T01:26:25;20.55;;;8.15;;
67867;SDS011;54672;46.096;14.470;2023-12-14T01:28:51;18.27;;;8.02;;
67867;SDS011;54672;46.096;14.470;2023-12-14T01:31:17;17.73;;;8.18;;
67867;SDS011;54672;46.096;14.470;2023-12-14T01:33:42;18.35;;;8.00;;
67867;SDS011;54672;46.096;14.470;2023-12-14T01:36:08;16.83;;;7.50;;
67867;SDS011;54672;46.096;14.470;2023-12-14T01:38:33;17.02;;;8.10;;
67867;SDS011;54672;46.096;14.470;2023-12-14T01:40:59;17.77;;;8.38;;
67867;SDS011;54672;46.096;14.470;2023-12-14T01:43:24;14.57;;;7.70;;
67867;SDS011;54672;46.096;14.470;2023-12-14T01:45:50;16.42;;;7.68;;
67867;SDS011;54672;46.096;14.470;2023-12-14T01:48:15;13.25;;;6.50;;
67867;SDS011;54672;46.096;14.470;2023-12-14T01:50:41;15.98;;;7.95;;
67867;SDS011;54672;46.096;14.470;2023-12-14T01:53:06;14.85;;;7.43;;
67867;SDS011;54672;46.096;14.470;2023-12-14T01:55:32;13.23;;;7.07;;
67867;SDS011;54672;46.096;14.470;2023-12-14T01:57:57;14.07;;;7.35;;
67867;SDS011;54672;46.096;14.470;2023-12-14T02:03:11;14.30;;;7.50;;
67867;SDS011;54672;46.096;14.470;2023-12-14T02:05:37;16.67;;;7.72;;
67867;SDS011;54672;46.096;14.470;2023-12-14T02:08:02;15.02;;;7.57;;
67867;SDS011;54672;46.096;14.470;2023-12-14T02:10:28;18.45;;;8.40;;
67867;SDS011;54672;46.096;14.470;2023-12-14T02:12:53;15.63;;;8.07;;
67867;SDS011;54672;46.096;14.470;2023-12-14T02:15:18;17.67;;;9.02;;
67867;SDS011;54672;46.096;14.470;2023-12-14T02:17:45;13.02;;;7.32;;
67867;SDS011;54672;46.096;14.470;2023-12-14T02:20:10;13.82;;;7.13;;
67867;SDS011;54672;46.096;14.470;2023-12-14T02:22:57;13.20;;;7.10;;
67867;SDS011;54672;46.096;14.470;2023-12-14T02:25:22;14.65;;;6.72;;
67867;SDS011;54672;46.096;14.470;2023-12-14T02:27:48;13.57;;;6.45;;
67867;SDS011;54672;46.096;14.470;2023-12-14T02:30:15;18.73;;;8.10;;
67867;SDS011;54672;46.096;14.470;2023-12-14T02:32:41;11.98;;;6.10;;
67867;SDS011;54672;46.096;14.470;2023-12-14T02:35:07;16.40;;;6.82;;
67867;SDS011;54672;46.096;14.470;2023-12-14T02:37:33;16.98;;;7.60;;
67867;SDS011;54672;46.096;14.470;2023-12-14T02:39:59;19.55;;;8.43;;
67867;SDS011;54672;46.096;14.470;2023-12-14T02:42:28;16.60;;;8.30;;
67867;SDS011;54672;46.096;14.470;2023-12-14T02:44:54;21.85;;;8.70;;
67867;SDS011;54672;46.096;14.470;2023-12-14T02:47:19;16.83;;;7.85;;
67867;SDS011;54672;46.096;14.470;2023-12-14T02:49:45;20.23;;;8.48;;
67867;SDS011;54672;46.096;14.470;2023-12-14T02:52:10;17.50;;;7.50;;
67867;SDS011;54672;46.096;14.470;2023-12-14T02:54:37;14.63;;;7.40;;
67867;SDS011;54672;46.096;14.470;2023-12-14T02:57:04;14.18;;;6.65;;
67867;SDS011;54672;46.096;14.470;2023-12-14T02:59:29;14.77;;;6.78;;
67867;SDS011;54672;46.096;14.470;2023-12-14T03:01:55;17.67;;;7.93;;
67867;SDS011;54672;46.096;14.470;2023-12-14T03:04:20;16.33;;;7.05;;
67867;SDS011;54672;46.096;14.470;2023-12-14T03:06:45;14.40;;;6.82;;
67867;SDS011;54672;46.096;14.470;2023-12-14T03:09:11;13.27;;;6.47;;
67867;SDS011;54672;46.096;14.470;2023-12-14T03:11:36;16.48;;;7.35;;
67867;SDS011;54672;46.096;14.470;2023-12-14T03:14:02;15.50;;;7.55;;
67867;SDS011;54672;46.096;14.470;2023-12-14T03:16:27;17.10;;;7.53;;
67867;SDS011;54672;46.096;14.470;2023-12-14T03:18:53;20.42;;;8.88;;
67867;SDS011;54672;46.096;14.470;2023-12-14T03:21:18;19.85;;;8.52;;
67867;SDS011;54672;46.096;14.470;2023-12-14T03:23:44;16.63;;;7.28;;
67867;SDS011;54672;46.096;14.470;2023-12-14T03:26:10;15.80;;;7.20;;
67867;SDS011;54672;46.096;14.470;2023-12-14T03:28:35;18.98;;;8.63;;
67867;SDS011;54672;46.096;14.470;2023-12-14T03:31:01;17.20;;;7.22;;
67867;SDS011;54672;46.096;14.470;2023-12-14T03:33:27;22.10;;;8.15;;
67867;SDS011;54672;46.096;14.470;2023-12-14T03:35:52;16.95;;;7.78;;
67867;SDS011;54672;46.096;14.470;2023-12-14T03:38:17;18.63;;;8.43;;
67867;SDS011;54672;46.096;14.470;2023-12-14T03:40:43;15.63;;;8.18;;
67867;SDS011;54672;46.096;14.470;2023-12-14T03:43:08;18.85;;;8.20;;
67867;SDS011;54672;46.096;14.470;2023-12-14T03:45:34;16.88;;;7.70;;
67867;SDS011;54672;46.096;14.470;2023-12-14T03:47:59;17.30;;;8.32;;
67867;SDS011;54672;46.096;14.470;2023-12-14T03:50:25;16.30;;;7.68;;
67867;SDS011;54672;46.096;14.470;2023-12-14T03:52:50;17.40;;;7.97;;
67867;SDS011;54672;46.096;14.470;2023-12-14T03:55:16;20.60;;;7.72;;
67867;SDS011;54672;46.096;14.470;2023-12-14T03:57:41;18.63;;;7.78;;
67867;SDS011;54672;46.096;14.470;2023-12-14T04:00:09;15.60;;;7.03;;
67867;SDS011;54672;46.096;14.470;2023-12-14T04:02:35;18.17;;;8.68;;
67867;SDS011;54672;46.096;14.470;2023-12-14T04:05:01;17.25;;;7.82;;
67867;SDS011;54672;46.096;14.470;2023-12-14T04:07:26;16.77;;;7.75;;
67867;SDS011;54672;46.096;14.470;2023-12-14T04:09:52;17.88;;;8.70;;
67867;SDS011;54672;46.096;14.470;2023-12-14T04:12:17;16.67;;;7.65;;
67867;SDS011;54672;46.096;14.470;2023-12-14T04:14:43;18.92;;;7.80;;
67867;SDS011;54672;46.096;14.470;2023-12-14T04:17:09;17.40;;;7.40;;
67867;SDS011;54672;46.096;14.470;2023-12-14T04:19:35;19.88;;;8.18;;
67867;SDS011;54672;46.096;14.470;2023-12-14T04:22:03;19.83;;;8.52;;
67867;SDS011;54672;46.096;14.470;2023-12-14T04:24:29;18.00;;;7.57;;
67867;SDS011;54672;46.096;14.470;2023-12-14T04:26:55;17.15;;;7.32;;
67867;SDS011;54672;46.096;14.470;2023-12-14T04:29:20;18.80;;;7.47;;
67867;SDS011;54672;46.096;14.470;2023-12-14T04:31:46;17.30;;;7.22;;
67867;SDS011;54672;46.096;14.470;2023-12-14T04:34:11;15.75;;;7.15;;
67867;SDS011;54672;46.096;14.470;2023-12-14T04:36:40;17.90;;;7.35;;
67867;SDS011;54672;46.096;14.470;2023-12-14T04:39:09;17.45;;;7.30;;
67867;SDS011;54672;46.096;14.470;2023-12-14T04:41:35;15.57;;;7.30;;
67867;SDS011;54672;46.096;14.470;2023-12-14T04:44:00;16.58;;;6.68;;
67867;SDS011;54672;46.096;14.470;2023-12-14T04:46:26;15.23;;;7.38;;
67867;SDS011;54672;46.096;14.470;2023-12-14T04:48:51;16.13;;;6.15;;
67867;SDS011;54672;46.096;14.470;2023-12-14T04:51:17;16.70;;;6.72;;
67867;SDS011;54672;46.096;14.470;2023-12-14T04:53:42;13.27;;;5.45;;
67867;SDS011;54672;46.096;14.470;2023-12-14T04:56:11;17.98;;;7.63;;
67867;SDS011;54672;46.096;14.470;2023-12-14T04:58:38;14.88;;;6.55;;
67867;SDS011;54672;46.096;14.470;2023-12-14T05:01:04;18.50;;;7.72;;
67867;SDS011;54672;46.096;14.470;2023-12-14T05:03:29;19.25;;;7.75;;
67867;SDS011;54672;46.096;14.470;2023-12-14T05:05:55;19.83;;;8.75;;
67867;SDS011;54672;46.096;14.470;2023-12-14T05:08:20;20.55;;;8.90;;
67867;SDS011;54672;46.096;14.470;2023-12-14T05:10:45;19.27;;;8.57;;
67867;SDS011;54672;46.096;14.470;2023-12-14T05:13:11;19.33;;;8.38;;
67867;SDS011;54672;46.096;14.470;2023-12-14T05:15:36;21.58;;;9.40;;
67867;SDS011;54672;46.096;14.470;2023-12-14T05:18:02;19.83;;;8.30;;
67867;SDS011;54672;46.096;14.470;2023-12-14T05:20:27;23.05;;;8.45;;
67867;SDS011;54672;46.096;14.470;2023-12-14T05:22:52;19.58;;;8.05;;
67867;SDS011;54672;46.096;14.470;2023-12-14T05:25:18;23.95;;;8.63;;
67867;SDS011;54672;46.096;14.470;2023-12-14T05:27:43;23.27;;;9.77;;
67867;SDS011;54672;46.096;14.470;2023-12-14T05:30:09;21.23;;;8.95;;
67867;SDS011;54672;46.096;14.470;2023-12-14T05:32:35;19.92;;;8.55;;
67867;SDS011;54672;46.096;14.470;2023-12-14T05:35:00;21.55;;;9.23;;
67867;SDS011;54672;46.096;14.470;2023-12-14T05:37:25;18.88;;;8.63;;
67867;SDS011;54672;46.096;14.470;2023-12-14T05:39:51;24.17;;;9.30;;
67867;SDS011;54672;46.096;14.470;2023-12-14T05:42:16;22.88;;;8.52;;
67867;SDS011;54672;46.096;14.470;2023-12-14T05:44:45;21.63;;;8.93;;
67867;SDS011;54672;46.096;14.470;2023-12-14T05:47:11;18.25;;;8.63;;
67867;SDS011;54672;46.096;14.470;2023-12-14T05:49:36;22.55;;;9.82;;
67867;SDS011;54672;46.096;14.470;2023-12-14T05:52:05;23.73;;;9.93;;
67867;SDS011;54672;46.096;14.470;2023-12-14T05:54:32;22.33;;;9.93;;
67867;SDS011;54672;46.096;14.470;2023-12-14T05:56:57;25.42;;;10.10;;
67867;SDS011;54672;46.096;14.470;2023-12-14T05:59:23;32.90;;;11.43;;
67867;SDS011;54672;46.096;14.470;2023-12-14T06:01:48;27.23;;;10.18;;
67867;SDS011;54672;46.096;14.470;2023-12-14T06:04:14;24.92;;;9.88;;
67867;SDS011;54672;46.096;14.470;2023-12-14T06:06:39;24.98;;;9.60;;
67867;SDS011;54672;46.096;14.470;2023-12-14T06:09:05;32.03;;;9.73;;
67867;SDS011;54672;46.096;14.470;2023-12-14T06:11:32;23.77;;;8.43;;
67867;SDS011;54672;46.096;14.470;2023-12-14T06:13:58;22.48;;;9.20;;
67867;SDS011;54672;46.096;14.470;2023-12-14T06:16:24;24.35;;;9.40;;
67867;SDS011;54672;46.096;14.470;2023-12-14T06:18:50;24.73;;;8.88;;
67867;SDS011;54672;46.096;14.470;2023-12-14T06:21:15;19.05;;;8.73;;
67867;SDS011;54672;46.096;14.470;2023-12-14T06:23:41;24.30;;;8.82;;
67867;SDS011;54672;46.096;14.470;2023-12-14T06:26:06;23.02;;;9.48;;
67867;SDS011;54672;46.096;14.470;2023-12-14T06:28:32;26.98;;;9.90;;
67867;SDS011;54672;46.096;14.470;2023-12-14T06:30:57;26.63;;;9.50;;
67867;SDS011;54672;46.096;14.470;2023-12-14T06:33:23;20.17;;;8.02;;
67867;SDS011;54672;46.096;14.470;2023-12-14T06:35:48;23.08;;;7.55;;
67867;SDS011;54672;46.096;14.470;2023-12-14T06:38:14;21.20;;;7.78;;
67867;SDS011;54672;46.096;14.470;2023-12-14T06:40:39;20.67;;;7.43;;
67867;SDS011;54672;46.096;14.470;2023-12-14T06:43:04;21.75;;;8.02;;
67867;SDS011;54672;46.096;14.470;2023-12-14T06:45:30;20.13;;;7.13;;
67867;SDS011;54672;46.096;14.470;2023-12-14T06:47:56;15.50;;;7.15;;
67867;SDS011;54672;46.096;14.470;2023-12-14T06:50:21;17.67;;;6.50;;
67867;SDS011;54672;46.096;14.470;2023-12-14T06:52:47;16.45;;;6.53;;
67867;SDS011;54672;46.096;14.470;2023-12-14T06:55:12;17.95;;;7.47;;
67867;SDS011;54672;46.096;14.470;2023-12-14T06:57:39;15.50;;;7.88;;
67867;SDS011;54672;46.096;14.470;2023-12-14T07:00:07;18.45;;;8.13;;
67867;SDS011;54672;46.096;14.470;2023-12-14T07:02:33;22.38;;;8.85;;
67867;SDS011;54672;46.096;14.470;2023-12-14T07:04:59;20.58;;;9.43;;
67867;SDS011;54672;46.096;14.470;2023-12-14T07:07:24;20.35;;;9.10;;
67867;SDS011;54672;46.096;14.470;2023-12-14T07:09:50;18.73;;;8.95;;
67867;SDS011;54672;46.096;14.470;2023-12-14T07:12:15;18.58;;;8.60;;
67867;SDS011;54672;46.096;14.470;2023-12-14T07:14:40;18.98;;;8.77;;
67867;SDS011;54672;46.096;14.470;2023-12-14T07:17:06;20.50;;;9.68;;
67867;SDS011;54672;46.096;14.470;2023-12-14T07:19:31;21.63;;;9.05;;
67867;SDS011;54672;46.096;14.470;2023-12-14T07:21:57;20.30;;;7.90;;
67867;SDS011;54672;46.096;14.470;2023-12-14T07:24:22;14.57;;;6.00;;
67867;SDS011;54672;46.096;14.470;2023-12-14T07:26:48;16.05;;;6.32;;
67867;SDS011;54672;46.096;14.470;2023-12-14T07:29:14;18.05;;;8.32;;
67867;SDS011;54672;46.096;14.470;2023-12-14T07:31:40;20.40;;;9.07;;
67867;SDS011;54672;46.096;14.470;2023-12-14T07:34:05;22.42;;;9.30;;
67867;SDS011;54672;46.096;14.470;2023-12-14T07:36:31;21.98;;;9.40;;
67867;SDS011;54672;46.096;14.470;2023-12-14T07:38:56;21.27;;;9.35;;
67867;SDS011;54672;46.096;14.470;2023-12-14T07:41:22;21.23;;;9.35;;
67867;SDS011;54672;46.096;14.470;2023-12-14T07:43:54;21.20;;;8.63;;
67867;SDS011;54672;46.096;14.470;2023-12-14T07:46:20;26.23;;;9.63;;
67867;SDS011;54672;46.096;14.470;2023-12-14T07:48:46;22.73;;;9.75;;
67867;SDS011;54672;46.096;14.470;2023-12-14T07:51:11;21.45;;;9.10;;
67867;SDS011;54672;46.096;14.470;2023-12-14T07:53:37;19.95;;;8.10;;
67867;SDS011;54672;46.096;14.470;2023-12-14T07:56:03;18.38;;;7.88;;
67867;SDS011;54672;46.096;14.470;2023-12-14T07:58:28;19.48;;;8.52;;
67867;SDS011;54672;46.096;14.470;2023-12-14T08:00:54;16.23;;;7.22;;
67867;SDS011;54672;46.096;14.470;2023-12-14T08:03:19;14.93;;;6.72;;
67867;SDS011;54672;46.096;14.470;2023-12-14T08:05:45;14.82;;;6.70;;
67867;SDS011;54672;46.096;14.470;2023-12-14T08:08:10;16.67;;;7.50;;
67867;SDS011;54672;46.096;14.470;2023-12-14T08:10:36;21.50;;;11.50;;
67867;SDS011;54672;46.096;14.470;2023-12-14T08:13:01;24.15;;;11.30;;
67867;SDS011;54672;46.096;14.470;2023-12-14T08:15:27;11.15;;;4.63;;
67867;SDS011;54672;46.096;14.470;2023-12-14T08:17:52;12.27;;;4.90;;
67867;SDS011;54672;46.096;14.470;2023-12-14T08:20:17;13.27;;;5.28;;
67867;SDS011;54672;46.096;14.470;2023-12-14T08:22:43;10.63;;;5.20;;
67867;SDS011;54672;46.096;14.470;2023-12-14T08:25:14;13.20;;;5.55;;
67867;SDS011;54672;46.096;14.470;2023-12-14T08:27:40;12.80;;;5.55;;
67867;SDS011;54672;46.096;14.470;2023-12-14T08:30:07;12.38;;;5.93;;
67867;SDS011;54672;46.096;14.470;2023-12-14T08:32:33;15.45;;;6.07;;
67867;SDS011;54672;46.096;14.470;2023-12-14T08:34:59;12.40;;;5.72;;
67867;SDS011;54672;46.096;14.470;2023-12-14T08:37:25;15.18;;;6.90;;
67867;SDS011;54672;46.096;14.470;2023-12-14T08:39:50;13.27;;;6.65;;
67867;SDS011;54672;46.096;14.470;2023-12-14T08:42:15;14.75;;;6.35;;
67867;SDS011;54672;46.096;14.470;2023-12-14T08:44:41;14.95;;;7.05;;
67867;SDS011;54672;46.096;14.470;2023-12-14T08:47:06;15.40;;;7.57;;
67867;SDS011;54672;46.096;14.470;2023-12-14T08:49:34;16.73;;;6.50;;
67867;SDS011;54672;46.096;14.470;2023-12-14T08:51:59;14.85;;;6.97;;
67867;SDS011;54672;46.096;14.470;2023-12-14T08:54:25;16.50;;;7.43;;
67867;SDS011;54672;46.096;14.470;2023-12-14T08:56:50;15.70;;;7.18;;
67867;SDS011;54672;46.096;14.470;2023-12-14T08:59:17;19.58;;;8.25;;
67867;SDS011;54672;46.096;14.470;2023-12-14T09:01:45;19.40;;;7.88;;
67867;SDS011;54672;46.096;14.470;2023-12-14T09:04:10;21.13;;;8.75;;
67867;SDS011;54672;46.096;14.470;2023-12-14T09:06:36;16.48;;;7.20;;
67867;SDS011;54672;46.096;14.470;2023-12-14T09:09:01;25.98;;;10.60;;
67867;SDS011;54672;46.096;14.470;2023-12-14T09:11:27;37.97;;;14.82;;
67867;SDS011;54672;46.096;14.470;2023-12-14T09:13:53;42.92;;;15.80;;
67867;SDS011;54672;46.096;14.470;2023-12-14T09:16:18;22.23;;;8.77;;
67867;SDS011;54672;46.096;14.470;2023-12-14T09:18:44;23.17;;;8.60;;
67867;SDS011;54672;46.096;14.470;2023-12-14T09:21:09;44.10;;;15.63;;
67867;SDS011;54672;46.096;14.470;2023-12-14T09:23:35;40.13;;;13.70;;
67867;SDS011;54672;46.096;14.470;2023-12-14T09:26:00;16.75;;;8.35;;
67867;SDS011;54672;46.096;14.470;2023-12-14T09:28:26;21.63;;;8.23;;
67867;SDS011;54672;46.096;14.470;2023-12-14T09:30:53;21.38;;;8.60;;
67867;SDS011;54672;46.096;14.470;2023-12-14T09:33:18;20.70;;;9.07;;
67867;SDS011;54672;46.096;14.470;2023-12-14T09:35:44;23.33;;;9.77;;
67867;SDS011;54672;46.096;14.470;2023-12-14T09:38:10;22.88;;;10.52;;
67867;SDS011;54672;46.096;14.470;2023-12-14T09:40:38;42.53;;;14.10;;
67867;SDS011;54672;46.096;14.470;2023-12-14T09:43:04;29.77;;;12.82;;
67867;SDS011;54672;46.096;14.470;2023-12-14T09:45:30;22.85;;;9.75;;
67867;SDS011;54672;46.096;14.470;2023-12-14T09:47:59;22.05;;;8.98;;
67867;SDS011;54672;46.096;14.470;2023-12-14T09:50:25;21.75;;;9.93;;
67867;SDS011;54672;46.096;14.470;2023-12-14T09:52:51;22.25;;;9.88;;
67867;SDS011;54672;46.096;14.470;2023-12-14T09:55:17;25.42;;;10.63;;
67867;SDS011;54672;46.096;14.470;2023-12-14T09:57:42;24.55;;;10.07;;
67867;SDS011;54672;46.096;14.470;2023-12-14T10:00:08;19.90;;;8.82;;
67867;SDS011;54672;46.096;14.470;2023-12-14T10:02:39;24.70;;;10.23;;
67867;SDS011;54672;46.096;14.470;2023-12-14T10:05:06;26.20;;;10.38;;
67867;SDS011;54672;46.096;14.470;2023-12-14T10:07:38;25.33;;;10.95;;
67867;SDS011;54672;46.096;14.470;2023-12-14T10:10:13;23.38;;;10.10;;
67867;SDS011;54672;46.096;14.470;2023-12-14T10:15:15;21.48;;;8.60;;
67867;SDS011;54672;46.096;14.470;2023-12-14T10:17:41;20.60;;;9.85;;
67867;SDS011;54672;46.096;14.470;2023-12-14T10:20:06;23.95;;;10.18;;
67867;SDS011;54672;46.096;14.470;2023-12-14T10:22:34;22.20;;;9.40;;
67867;SDS011;54672;46.096;14.470;2023-12-14T10:25:02;19.50;;;8.93;;
67867;SDS011;54672;46.096;14.470;2023-12-14T10:27:29;23.55;;;10.02;;
67867;SDS011;54672;46.096;14.470;2023-12-14T10:29:55;20.60;;;9.45;;
67867;SDS011;54672;46.096;14.470;2023-12-14T10:32:21;21.17;;;10.55;;
67867;SDS011;54672;46.096;14.470;2023-12-14T10:34:49;21.90;;;9.82;;
67867;SDS011;54672;46.096;14.470;2023-12-14T10:37:14;20.13;;;9.75;;
67867;SDS011;54672;46.096;14.470;2023-12-14T10:39:42;23.90;;;10.23;;
67867;SDS011;54672;46.096;14.470;2023-12-14T10:42:08;20.88;;;9.30;;
67867;SDS011;54672;46.096;14.470;2023-12-14T10:44:35;23.65;;;10.52;;
67867;SDS011;54672;46.096;14.470;2023-12-14T10:47:02;26.58;;;11.07;;
67867;SDS011;54672;46.096;14.470;2023-12-14T10:49:29;22.40;;;10.98;;
67867;SDS011;54672;46.096;14.470;2023-12-14T10:51:56;22.52;;;10.82;;
67867;SDS011;54672;46.096;14.470;2023-12-14T10:54:24;27.52;;;11.27;;
67867;SDS011;54672;46.096;14.470;2023-12-14T10:56:57;25.80;;;10.77;;
67867;SDS011;54672;46.096;14.470;2023-12-14T10:59:24;26.77;;;11.23;;
67867;SDS011;54672;46.096;14.470;2023-12-14T11:01:53;23.05;;;10.65;;
67867;SDS011;54672;46.096;14.470;2023-12-14T11:04:22;22.77;;;10.93;;
67867;SDS011;54672;46.096;14.470;2023-12-14T11:06:48;24.73;;;10.88;;
67867;SDS011;54672;46.096;14.470;2023-12-14T11:09:14;25.90;;;9.88;;
67867;SDS011;54672;46.096;14.470;2023-12-14T11:14:18;21.60;;;9.80;;
67867;SDS011;54672;46.096;14.470;2023-12-14T11:16:45;25.02;;;10.00;;
67867;SDS011;54672;46.096;14.470;2023-12-14T11:19:23;23.05;;;9.43;;
67867;SDS011;54672;46.096;14.470;2023-12-14T11:24:30;24.38;;;10.45;;
67867;SDS011;54672;46.096;14.470;2023-12-14T11:26:56;19.90;;;9.95;;
67867;SDS011;54672;46.096;14.470;2023-12-14T11:29:21;25.38;;;10.30;;
67867;SDS011;54672;46.096;14.470;2023-12-14T11:31:47;19.45;;;8.57;;
67867;SDS011;54672;46.096;14.470;2023-12-14T11:34:16;20.35;;;8.60;;
67867;SDS011;54672;46.096;14.470;2023-12-14T11:36:42;20.90;;;9.15;;
67867;SDS011;54672;46.096;14.470;2023-12-14T11:39:07;23.08;;;9.43;;
67867;SDS011;54672;46.096;14.470;2023-12-14T11:41:34;22.98;;;8.52;;
67867;SDS011;54672;46.096;14.470;2023-12-14T11:44:00;24.13;;;10.05;;
67867;SDS011;54672;46.096;14.470;2023-12-14T11:46:26;22.23;;;9.35;;
67867;SDS011;54672;46.096;14.470;2023-12-14T11:48:51;22.67;;;9.93;;
67867;SDS011;54672;46.096;14.470;2023-12-14T11:51:17;18.15;;;8.10;;
67867;SDS011;54672;46.096;14.470;2023-12-14T11:53:46;18.10;;;8.57;;
67867;SDS011;54672;46.096;14.470;2023-12-14T11:56:13;24.98;;;9.52;;
67867;SDS011;54672;46.096;14.470;2023-12-14T11:58:43;20.10;;;8.63;;
67867;SDS011;54672;46.096;14.470;2023-12-14T12:01:16;21.60;;;8.90;;
67867;SDS011;54672;46.096;14.470;2023-12-14T12:03:43;25.30;;;9.43;;
67867;SDS011;54672;46.096;14.470;2023-12-14T12:06:22;23.10;;;10.00;;
67867;SDS011;54672;46.096;14.470;2023-12-14T12:08:49;21.85;;;8.60;;
67867;SDS011;54672;46.096;14.470;2023-12-14T12:11:18;24.10;;;9.95;;
67867;SDS011;54672;46.096;14.470;2023-12-14T12:13:44;23.63;;;8.60;;
67867;SDS011;54672;46.096;14.470;2023-12-14T12:16:17;17.15;;;7.20;;
67867;SDS011;54672;46.096;14.470;2023-12-14T12:18:43;18.77;;;7.07;;
67867;SDS011;54672;46.096;14.470;2023-12-14T12:21:10;21.23;;;8.85;;
67867;SDS011;54672;46.096;14.470;2023-12-14T12:23:36;17.38;;;6.80;;
67867;SDS011;54672;46.096;14.470;2023-12-14T12:26:02;14.68;;;7.50;;
67867;SDS011;54672;46.096;14.470;2023-12-14T12:28:27;20.50;;;7.97;;
67867;SDS011;54672;46.096;14.470;2023-12-14T12:30:55;20.00;;;7.57;;
67867;SDS011;54672;46.096;14.470;2023-12-14T12:33:20;22.20;;;8.65;;
67867;SDS011;54672;46.096;14.470;2023-12-14T12:35:46;20.08;;;7.82;;
67867;SDS011;54672;46.096;14.470;2023-12-14T12:38:11;21.42;;;8.95;;
67867;SDS011;54672;46.096;14.470;2023-12-14T12:40:37;20.17;;;7.47;;
67867;SDS011;54672;46.096;14.470;2023-12-14T12:43:03;23.83;;;9.13;;
67867;SDS011;54672;46.096;14.470;2023-12-14T12:45:29;23.13;;;9.40;;
67867;SDS011;54672;46.096;14.470;2023-12-14T12:47:54;28.55;;;11.00;;
67867;SDS011;54672;46.096;14.470;2023-12-14T12:50:20;22.77;;;10.60;;
67867;SDS011;54672;46.096;14.470;2023-12-14T12:52:46;25.48;;;11.35;;
67867;SDS011;54672;46.096;14.470;2023-12-14T12:55:13;23.25;;;8.95;;
67867;SDS011;54672;46.096;14.470;2023-12-14T12:57:39;22.08;;;9.70;;
67867;SDS011;54672;46.096;14.470;2023-12-14T13:00:06;17.80;;;7.40;;
67867;SDS011;54672;46.096;14.470;2023-12-14T13:02:36;24.20;;;9.77;;
67867;SDS011;54672;46.096;14.470;2023-12-14T13:05:03;22.15;;;8.63;;
67867;SDS011;54672;46.096;14.470;2023-12-14T13:07:30;22.60;;;7.68;;
67867;SDS011;54672;46.096;14.470;2023-12-14T13:09:56;22.65;;;8.38;;
67867;SDS011;54672;46.096;14.470;2023-12-14T13:12:21;21.88;;;8.48;;
67867;SDS011;54672;46.096;14.470;2023-12-14T13:14:47;19.50;;;8.55;;
67867;SDS011;54672;46.096;14.470;2023-12-14T13:17:12;22.85;;;8.55;;
67867;SDS011;54672;46.096;14.470;2023-12-14T13:19:37;24.13;;;8.65;;
67867;SDS011;54672;46.096;14.470;2023-12-14T13:22:03;19.75;;;9.13;;
67867;SDS011;54672;46.096;14.470;2023-12-14T13:24:29;21.42;;;8.02;;
67867;SDS011;54672;46.096;14.470;2023-12-14T13:26:55;22.30;;;8.35;;
67867;SDS011;54672;46.096;14.470;2023-12-14T13:29:21;17.00;;;7.65;;
67867;SDS011;54672;46.096;14.470;2023-12-14T13:31:47;31.40;;;9.43;;
67867;SDS011;54672;46.096;14.470;2023-12-14T13:34:13;16.95;;;6.70;;
67867;SDS011;54672;46.096;14.470;2023-12-14T13:36:38;14.43;;;6.80;;
67867;SDS011;54672;46.096;14.470;2023-12-14T13:39:03;22.10;;;8.50;;
67867;SDS011;54672;46.096;14.470;2023-12-14T13:41:29;12.18;;;5.72;;
67867;SDS011;54672;46.096;14.470;2023-12-14T13:43:58;15.93;;;6.50;;
67867;SDS011;54672;46.096;14.470;2023-12-14T13:46:24;14.70;;;6.15;;
67867;SDS011;54672;46.096;14.470;2023-12-14T13:48:49;13.85;;;6.47;;
67867;SDS011;54672;46.096;14.470;2023-12-14T13:51:15;23.00;;;10.27;;
67867;SDS011;54672;46.096;14.470;2023-12-14T13:53:40;15.55;;;7.38;;
67867;SDS011;54672;46.096;14.470;2023-12-14T13:56:06;24.48;;;9.93;;
67867;SDS011;54672;46.096;14.470;2023-12-14T13:58:32;22.08;;;8.15;;
67867;SDS011;54672;46.096;14.470;2023-12-14T14:00:59;24.27;;;8.43;;
67867;SDS011;54672;46.096;14.470;2023-12-14T14:03:25;14.13;;;6.18;;
67867;SDS011;54672;46.096;14.470;2023-12-14T14:05:52;16.67;;;6.28;;
67867;SDS011;54672;46.096;14.470;2023-12-14T14:08:18;23.13;;;8.93;;
67867;SDS011;54672;46.096;14.470;2023-12-14T14:10:43;18.42;;;7.63;;
67867;SDS011;54672;46.096;14.470;2023-12-14T14:13:08;16.35;;;6.60;;
67867;SDS011;54672;46.096;14.470;2023-12-14T14:15:34;18.23;;;6.93;;
67867;SDS011;54672;46.096;14.470;2023-12-14T14:17:59;18.23;;;8.32;;
67867;SDS011;54672;46.096;14.470;2023-12-14T14:20:25;21.38;;;7.97;;
67867;SDS011;54672;46.096;14.470;2023-12-14T14:22:51;21.35;;;8.70;;
67867;SDS011;54672;46.096;14.470;2023-12-14T14:25:16;20.92;;;8.43;;